sensor_id;sensor_type;location;lat;lon;timestamp;P1;durP1;ratioP1;P2;durP2;ratioP2
8458;SDS011;4266;48.816;9.154;2023-03-31T00:01:36;4.87;;;3.17;;
8458;SDS011;4266;48.816;9.154;2023-03-31T00:04:02;10.13;;;3.50;;
8458;SDS011;4266;48.816;9.154;2023-03-31T00:06:28;6.17;;;3.20;;
8458;SDS011;4266;48.816;9.154;2023-03-31T00:08:53;5.73;;;2.80;;
8458;SDS011;4266;48.816;9.154;2023-03-31T00:11:20;5.87;;;3.00;;
8458;SDS011;4266;48.816;9.154;2023-03-31T00:13:45;6.63;;;3.40;;
8458;SDS011;4266;48.816;9.154;2023-03-31T00:16:10;7.50;;;3.03;;
8458;SDS011;4266;48.816;9.154;2023-03-31T00:18:37;4.87;;;2.77;;
8458;SDS011;4266;48.816;9.154;2023-03-31T00:21:07;6.87;;;3.10;;
8458;SDS011;4266;48.816;9.154;2023-03-31T00:23:31;7.70;;;3.30;;
8458;SDS011;4266;48.816;9.154;2023-03-31T00:25:57;4.70;;;2.50;;
8458;SDS011;4266;48.816;9.154;2023-03-31T00:28:23;7.30;;;3.77;;
8458;SDS011;4266;48.816;9.154;2023-03-31T00:30:48;10.67;;;3.60;;
8458;SDS011;4266;48.816;9.154;2023-03-31T00:33:15;4.73;;;2.80;;
8458;SDS011;4266;48.816;9.154;2023-03-31T00:35:41;6.60;;;3.43;;
8458;SDS011;4266;48.816;9.154;2023-03-31T00:38:07;8.40;;;3.30;;
8458;SDS011;4266;48.816;9.154;2023-03-31T00:40:34;4.53;;;3.00;;
8458;SDS011;4266;48.816;9.154;2023-03-31T00:42:59;7.40;;;2.97;;
8458;SDS011;4266;48.816;9.154;2023-03-31T00:45:28;7.03;;;3.13;;
8458;SDS011;4266;48.816;9.154;2023-03-31T00:47:56;9.10;;;3.50;;
8458;SDS011;4266;48.816;9.154;2023-03-31T00:50:21;6.97;;;3.20;;
8458;SDS011;4266;48.816;9.154;2023-03-31T00:52:46;8.83;;;3.30;;
8458;SDS011;4266;48.816;9.154;2023-03-31T00:55:15;6.80;;;3.57;;
8458;SDS011;4266;48.816;9.154;2023-03-31T00:57:40;9.00;;;3.63;;
8458;SDS011;4266;48.816;9.154;2023-03-31T01:00:09;9.50;;;3.40;;
8458;SDS011;4266;48.816;9.154;2023-03-31T01:02:34;7.67;;;3.60;;
8458;SDS011;4266;48.816;9.154;2023-03-31T01:05:00;9.37;;;3.87;;
8458;SDS011;4266;48.816;9.154;2023-03-31T01:07:28;8.37;;;3.60;;
8458;SDS011;4266;48.816;9.154;2023-03-31T01:09:51;4.90;;;3.60;;
8458;SDS011;4266;48.816;9.154;2023-03-31T01:12:17;9.77;;;3.60;;
8458;SDS011;4266;48.816;9.154;2023-03-31T01:14:42;8.43;;;3.93;;
8458;SDS011;4266;48.816;9.154;2023-03-31T01:17:08;5.60;;;3.40;;
8458;SDS011;4266;48.816;9.154;2023-03-31T01:19:42;8.90;;;3.27;;
8458;SDS011;4266;48.816;9.154;2023-03-31T01:22:21;7.33;;;3.20;;
8458;SDS011;4266;48.816;9.154;2023-03-31T01:24:55;6.23;;;3.60;;
8458;SDS011;4266;48.816;9.154;2023-03-31T01:27:36;6.43;;;3.10;;
8458;SDS011;4266;48.816;9.154;2023-03-31T01:30:24;4.03;;;2.97;;
8458;SDS011;4266;48.816;9.154;2023-03-31T01:35:40;10.90;;;3.93;;
8458;SDS011;4266;48.816;9.154;2023-03-31T01:38:13;7.60;;;3.37;;
8458;SDS011;4266;48.816;9.154;2023-03-31T01:40:37;6.60;;;3.13;;
8458;SDS011;4266;48.816;9.154;2023-03-31T01:46:01;8.57;;;2.83;;
8458;SDS011;4266;48.816;9.154;2023-03-31T01:48:30;5.70;;;3.20;;
8458;SDS011;4266;48.816;9.154;2023-03-31T01:50:56;5.67;;;2.97;;
8458;SDS011;4266;48.816;9.154;2023-03-31T01:53:28;6.50;;;2.97;;
8458;SDS011;4266;48.816;9.154;2023-03-31T01:56:01;5.50;;;3.20;;
8458;SDS011;4266;48.816;9.154;2023-03-31T01:58:31;4.80;;;3.10;;
8458;SDS011;4266;48.816;9.154;2023-03-31T02:00:57;6.40;;;3.10;;
8458;SDS011;4266;48.816;9.154;2023-03-31T02:03:21;7.07;;;2.70;;
8458;SDS011;4266;48.816;9.154;2023-03-31T02:05:47;10.90;;;3.20;;
8458;SDS011;4266;48.816;9.154;2023-03-31T02:08:16;5.93;;;2.57;;
8458;SDS011;4266;48.816;9.154;2023-03-31T02:10:42;4.37;;;3.10;;
8458;SDS011;4266;48.816;9.154;2023-03-31T02:13:07;3.60;;;2.37;;
8458;SDS011;4266;48.816;9.154;2023-03-31T02:15:34;6.27;;;3.60;;
8458;SDS011;4266;48.816;9.154;2023-03-31T02:18:01;6.27;;;2.90;;
8458;SDS011;4266;48.816;9.154;2023-03-31T02:20:27;5.00;;;2.87;;
8458;SDS011;4266;48.816;9.154;2023-03-31T02:22:54;4.40;;;3.17;;
8458;SDS011;4266;48.816;9.154;2023-03-31T02:25:21;7.83;;;3.00;;
8458;SDS011;4266;48.816;9.154;2023-03-31T02:27:46;5.10;;;3.20;;
8458;SDS011;4266;48.816;9.154;2023-03-31T02:30:12;8.70;;;3.23;;
8458;SDS011;4266;48.816;9.154;2023-03-31T02:32:39;5.40;;;3.00;;
8458;SDS011;4266;48.816;9.154;2023-03-31T02:35:04;7.53;;;3.07;;
8458;SDS011;4266;48.816;9.154;2023-03-31T02:37:29;7.50;;;3.40;;
8458;SDS011;4266;48.816;9.154;2023-03-31T02:39:56;5.63;;;2.87;;
8458;SDS011;4266;48.816;9.154;2023-03-31T02:42:21;8.60;;;3.43;;
8458;SDS011;4266;48.816;9.154;2023-03-31T02:44:46;6.70;;;3.43;;
8458;SDS011;4266;48.816;9.154;2023-03-31T02:47:13;6.33;;;3.00;;
8458;SDS011;4266;48.816;9.154;2023-03-31T02:49:39;6.50;;;3.53;;
8458;SDS011;4266;48.816;9.154;2023-03-31T02:57:19;7.77;;;3.77;;
8458;SDS011;4266;48.816;9.154;2023-03-31T02:59:51;8.23;;;3.67;;
8458;SDS011;4266;48.816;9.154;2023-03-31T03:02:32;10.53;;;4.17;;
8458;SDS011;4266;48.816;9.154;2023-03-31T03:05:07;4.83;;;3.23;;
8458;SDS011;4266;48.816;9.154;2023-03-31T03:07:33;5.10;;;3.27;;
8458;SDS011;4266;48.816;9.154;2023-03-31T03:10:02;8.60;;;3.20;;
8458;SDS011;4266;48.816;9.154;2023-03-31T03:12:34;6.70;;;3.30;;
8458;SDS011;4266;48.816;9.154;2023-03-31T03:15:02;7.37;;;3.27;;
8458;SDS011;4266;48.816;9.154;2023-03-31T03:17:29;8.13;;;3.93;;
8458;SDS011;4266;48.816;9.154;2023-03-31T03:19:54;5.87;;;3.50;;
8458;SDS011;4266;48.816;9.154;2023-03-31T03:22:19;8.10;;;3.60;;
8458;SDS011;4266;48.816;9.154;2023-03-31T03:24:44;8.97;;;3.60;;
8458;SDS011;4266;48.816;9.154;2023-03-31T03:27:10;7.77;;;3.93;;
8458;SDS011;4266;48.816;9.154;2023-03-31T03:29:36;6.20;;;3.60;;
8458;SDS011;4266;48.816;9.154;2023-03-31T03:32:03;5.37;;;3.37;;
8458;SDS011;4266;48.816;9.154;2023-03-31T03:34:30;5.53;;;3.50;;
8458;SDS011;4266;48.816;9.154;2023-03-31T03:36:55;7.97;;;4.10;;
8458;SDS011;4266;48.816;9.154;2023-03-31T03:39:22;6.40;;;3.43;;
8458;SDS011;4266;48.816;9.154;2023-03-31T03:41:48;8.37;;;3.80;;
8458;SDS011;4266;48.816;9.154;2023-03-31T03:44:14;11.43;;;4.00;;
8458;SDS011;4266;48.816;9.154;2023-03-31T03:46:40;7.07;;;3.40;;
8458;SDS011;4266;48.816;9.154;2023-03-31T03:49:06;7.07;;;3.57;;
8458;SDS011;4266;48.816;9.154;2023-03-31T03:51:32;8.23;;;4.03;;
8458;SDS011;4266;48.816;9.154;2023-03-31T03:53:58;6.10;;;4.20;;
8458;SDS011;4266;48.816;9.154;2023-03-31T03:56:24;8.87;;;3.70;;
8458;SDS011;4266;48.816;9.154;2023-03-31T03:58:50;5.53;;;3.83;;
8458;SDS011;4266;48.816;9.154;2023-03-31T04:01:16;5.80;;;4.10;;
8458;SDS011;4266;48.816;9.154;2023-03-31T04:03:41;5.60;;;4.40;;
8458;SDS011;4266;48.816;9.154;2023-03-31T04:06:08;7.80;;;4.30;;
8458;SDS011;4266;48.816;9.154;2023-03-31T04:08:34;8.63;;;4.10;;
8458;SDS011;4266;48.816;9.154;2023-03-31T04:11:01;4.93;;;4.00;;
8458;SDS011;4266;48.816;9.154;2023-03-31T04:13:26;4.53;;;4.13;;
8458;SDS011;4266;48.816;9.154;2023-03-31T04:15:52;7.70;;;4.30;;
8458;SDS011;4266;48.816;9.154;2023-03-31T04:18:18;5.37;;;3.80;;
8458;SDS011;4266;48.816;9.154;2023-03-31T04:20:44;6.97;;;4.30;;
8458;SDS011;4266;48.816;9.154;2023-03-31T04:23:10;7.63;;;4.47;;
8458;SDS011;4266;48.816;9.154;2023-03-31T04:25:36;8.77;;;4.97;;
8458;SDS011;4266;48.816;9.154;2023-03-31T04:28:02;5.53;;;4.20;;
8458;SDS011;4266;48.816;9.154;2023-03-31T04:30:28;9.37;;;5.00;;
8458;SDS011;4266;48.816;9.154;2023-03-31T04:32:56;9.33;;;4.80;;
8458;SDS011;4266;48.816;9.154;2023-03-31T04:35:24;9.67;;;4.47;;
8458;SDS011;4266;48.816;9.154;2023-03-31T04:37:50;8.87;;;5.30;;
8458;SDS011;4266;48.816;9.154;2023-03-31T04:40:15;7.30;;;4.57;;
8458;SDS011;4266;48.816;9.154;2023-03-31T04:42:42;9.27;;;5.10;;
8458;SDS011;4266;48.816;9.154;2023-03-31T04:45:08;8.30;;;4.50;;
8458;SDS011;4266;48.816;9.154;2023-03-31T04:47:34;6.97;;;4.60;;
8458;SDS011;4266;48.816;9.154;2023-03-31T04:50:00;6.03;;;4.93;;
8458;SDS011;4266;48.816;9.154;2023-03-31T04:52:26;8.03;;;5.00;;
8458;SDS011;4266;48.816;9.154;2023-03-31T04:54:52;9.27;;;4.60;;
8458;SDS011;4266;48.816;9.154;2023-03-31T04:57:18;9.47;;;4.47;;
8458;SDS011;4266;48.816;9.154;2023-03-31T04:59:44;8.07;;;4.90;;
8458;SDS011;4266;48.816;9.154;2023-03-31T05:02:10;7.77;;;4.30;;
8458;SDS011;4266;48.816;9.154;2023-03-31T05:04:35;6.93;;;4.60;;
8458;SDS011;4266;48.816;9.154;2023-03-31T05:07:01;7.37;;;4.27;;
8458;SDS011;4266;48.816;9.154;2023-03-31T05:09:27;9.53;;;4.53;;
8458;SDS011;4266;48.816;9.154;2023-03-31T05:11:52;7.97;;;5.00;;
8458;SDS011;4266;48.816;9.154;2023-03-31T05:14:18;9.50;;;5.57;;
8458;SDS011;4266;48.816;9.154;2023-03-31T05:16:44;9.83;;;4.77;;
8458;SDS011;4266;48.816;9.154;2023-03-31T05:19:10;8.60;;;5.03;;
8458;SDS011;4266;48.816;9.154;2023-03-31T05:21:36;8.27;;;5.10;;
8458;SDS011;4266;48.816;9.154;2023-03-31T05:24:02;9.97;;;5.37;;
8458;SDS011;4266;48.816;9.154;2023-03-31T05:26:29;8.93;;;4.53;;
8458;SDS011;4266;48.816;9.154;2023-03-31T05:28:55;8.83;;;5.40;;
8458;SDS011;4266;48.816;9.154;2023-03-31T05:31:21;10.90;;;5.03;;
8458;SDS011;4266;48.816;9.154;2023-03-31T05:33:46;9.57;;;5.43;;
8458;SDS011;4266;48.816;9.154;2023-03-31T05:36:13;10.13;;;5.43;;
8458;SDS011;4266;48.816;9.154;2023-03-31T05:38:38;13.57;;;7.03;;
8458;SDS011;4266;48.816;9.154;2023-03-31T05:41:04;17.70;;;9.77;;
8458;SDS011;4266;48.816;9.154;2023-03-31T05:43:30;19.87;;;10.67;;
8458;SDS011;4266;48.816;9.154;2023-03-31T05:45:55;15.00;;;8.93;;
8458;SDS011;4266;48.816;9.154;2023-03-31T05:48:22;13.73;;;6.73;;
8458;SDS011;4266;48.816;9.154;2023-03-31T05:50:48;12.40;;;6.00;;
8458;SDS011;4266;48.816;9.154;2023-03-31T05:53:14;9.40;;;6.40;;
8458;SDS011;4266;48.816;9.154;2023-03-31T05:55:40;9.97;;;6.33;;
8458;SDS011;4266;48.816;9.154;2023-03-31T05:58:13;10.63;;;6.50;;
8458;SDS011;4266;48.816;9.154;2023-03-31T06:00:39;10.00;;;7.20;;
8458;SDS011;4266;48.816;9.154;2023-03-31T06:03:05;10.13;;;5.83;;
8458;SDS011;4266;48.816;9.154;2023-03-31T06:05:31;10.03;;;6.27;;
8458;SDS011;4266;48.816;9.154;2023-03-31T06:07:56;10.90;;;6.63;;
8458;SDS011;4266;48.816;9.154;2023-03-31T06:10:23;12.37;;;6.53;;
8458;SDS011;4266;48.816;9.154;2023-03-31T06:12:48;12.27;;;6.30;;
8458;SDS011;4266;48.816;9.154;2023-03-31T06:15:14;11.60;;;5.67;;
8458;SDS011;4266;48.816;9.154;2023-03-31T06:17:40;16.27;;;7.00;;
8458;SDS011;4266;48.816;9.154;2023-03-31T06:20:06;14.27;;;6.63;;
8458;SDS011;4266;48.816;9.154;2023-03-31T06:22:33;11.67;;;6.30;;
8458;SDS011;4266;48.816;9.154;2023-03-31T06:24:58;10.47;;;6.07;;
8458;SDS011;4266;48.816;9.154;2023-03-31T06:27:24;13.23;;;6.60;;
8458;SDS011;4266;48.816;9.154;2023-03-31T06:29:50;15.60;;;6.40;;
8458;SDS011;4266;48.816;9.154;2023-03-31T06:32:16;15.73;;;6.67;;
8458;SDS011;4266;48.816;9.154;2023-03-31T06:34:42;11.77;;;6.67;;
8458;SDS011;4266;48.816;9.154;2023-03-31T06:37:08;14.33;;;7.40;;
8458;SDS011;4266;48.816;9.154;2023-03-31T06:39:33;14.90;;;6.63;;
8458;SDS011;4266;48.816;9.154;2023-03-31T06:41:59;13.50;;;5.93;;
8458;SDS011;4266;48.816;9.154;2023-03-31T06:44:25;11.13;;;6.50;;
8458;SDS011;4266;48.816;9.154;2023-03-31T06:46:51;12.30;;;7.50;;
8458;SDS011;4266;48.816;9.154;2023-03-31T06:49:18;13.30;;;6.50;;
8458;SDS011;4266;48.816;9.154;2023-03-31T06:51:45;10.60;;;6.20;;
8458;SDS011;4266;48.816;9.154;2023-03-31T06:54:14;22.63;;;7.10;;
8458;SDS011;4266;48.816;9.154;2023-03-31T06:56:39;12.23;;;6.27;;
8458;SDS011;4266;48.816;9.154;2023-03-31T06:59:05;13.50;;;7.40;;
8458;SDS011;4266;48.816;9.154;2023-03-31T07:01:31;18.23;;;7.33;;
8458;SDS011;4266;48.816;9.154;2023-03-31T07:03:57;10.83;;;6.60;;
8458;SDS011;4266;48.816;9.154;2023-03-31T07:06:22;11.40;;;6.90;;
8458;SDS011;4266;48.816;9.154;2023-03-31T07:08:48;14.03;;;7.20;;
8458;SDS011;4266;48.816;9.154;2023-03-31T07:11:14;18.37;;;8.17;;
8458;SDS011;4266;48.816;9.154;2023-03-31T07:13:40;12.67;;;7.33;;
8458;SDS011;4266;48.816;9.154;2023-03-31T07:16:06;11.17;;;6.83;;
8458;SDS011;4266;48.816;9.154;2023-03-31T07:18:32;9.33;;;6.23;;
8458;SDS011;4266;48.816;9.154;2023-03-31T07:20:58;11.67;;;6.30;;
8458;SDS011;4266;48.816;9.154;2023-03-31T07:23:23;10.67;;;5.97;;
8458;SDS011;4266;48.816;9.154;2023-03-31T07:25:49;7.50;;;5.37;;
8458;SDS011;4266;48.816;9.154;2023-03-31T07:28:15;9.17;;;5.27;;
8458;SDS011;4266;48.816;9.154;2023-03-31T07:30:41;5.57;;;5.07;;
8458;SDS011;4266;48.816;9.154;2023-03-31T07:33:07;10.47;;;4.70;;
8458;SDS011;4266;48.816;9.154;2023-03-31T07:35:32;6.77;;;5.67;;
8458;SDS011;4266;48.816;9.154;2023-03-31T07:37:58;6.30;;;5.10;;
8458;SDS011;4266;48.816;9.154;2023-03-31T07:40:25;5.27;;;4.77;;
8458;SDS011;4266;48.816;9.154;2023-03-31T07:42:51;5.00;;;4.60;;
8458;SDS011;4266;48.816;9.154;2023-03-31T07:45:16;4.17;;;3.37;;
8458;SDS011;4266;48.816;9.154;2023-03-31T07:47:42;3.63;;;3.30;;
8458;SDS011;4266;48.816;9.154;2023-03-31T07:50:08;3.57;;;2.90;;
8458;SDS011;4266;48.816;9.154;2023-03-31T07:52:34;3.07;;;2.70;;
8458;SDS011;4266;48.816;9.154;2023-03-31T07:55:00;2.80;;;2.60;;
8458;SDS011;4266;48.816;9.154;2023-03-31T07:57:33;3.37;;;2.30;;
8458;SDS011;4266;48.816;9.154;2023-03-31T07:59:59;2.40;;;2.20;;
8458;SDS011;4266;48.816;9.154;2023-03-31T08:02:25;2.62;;;2.42;;
8458;SDS011;4266;48.816;9.154;2023-03-31T08:04:51;2.45;;;2.20;;
8458;SDS011;4266;48.816;9.154;2023-03-31T08:07:17;2.15;;;2.05;;
8458;SDS011;4266;48.816;9.154;2023-03-31T08:09:44;2.30;;;2.10;;
8458;SDS011;4266;48.816;9.154;2023-03-31T08:12:09;2.65;;;1.80;;
8458;SDS011;4266;48.816;9.154;2023-03-31T08:14:34;2.85;;;2.20;;
8458;SDS011;4266;48.816;9.154;2023-03-31T08:17:01;2.45;;;1.80;;
8458;SDS011;4266;48.816;9.154;2023-03-31T08:19:27;4.40;;;1.80;;
8458;SDS011;4266;48.816;9.154;2023-03-31T08:21:52;1.80;;;1.70;;
8458;SDS011;4266;48.816;9.154;2023-03-31T08:24:18;2.72;;;1.60;;
8458;SDS011;4266;48.816;9.154;2023-03-31T08:26:44;2.28;;;1.75;;
8458;SDS011;4266;48.816;9.154;2023-03-31T08:29:10;2.35;;;1.80;;
8458;SDS011;4266;48.816;9.154;2023-03-31T08:31:37;2.28;;;1.95;;
8458;SDS011;4266;48.816;9.154;2023-03-31T08:34:03;1.80;;;1.70;;
8458;SDS011;4266;48.816;9.154;2023-03-31T08:36:29;1.92;;;1.83;;
8458;SDS011;4266;48.816;9.154;2023-03-31T08:38:55;1.60;;;1.50;;
8458;SDS011;4266;48.816;9.154;2023-03-31T08:41:25;2.33;;;1.70;;
8458;SDS011;4266;48.816;9.154;2023-03-31T08:43:49;1.80;;;1.70;;
8458;SDS011;4266;48.816;9.154;2023-03-31T08:46:14;2.42;;;1.80;;
8458;SDS011;4266;48.816;9.154;2023-03-31T08:48:40;3.95;;;1.80;;
8458;SDS011;4266;48.816;9.154;2023-03-31T08:51:08;2.28;;;2.03;;
8458;SDS011;4266;48.816;9.154;2023-03-31T08:53:34;2.10;;;1.80;;
8458;SDS011;4266;48.816;9.154;2023-03-31T08:55:58;4.03;;;2.00;;
8458;SDS011;4266;48.816;9.154;2023-03-31T09:01:17;2.92;;;1.67;;
8458;SDS011;4266;48.816;9.154;2023-03-31T09:04:03;10.63;;;2.10;;
8458;SDS011;4266;48.816;9.154;2023-03-31T09:06:35;3.35;;;1.90;;
8458;SDS011;4266;48.816;9.154;2023-03-31T09:09:19;2.22;;;2.03;;
8458;SDS011;4266;48.816;9.154;2023-03-31T09:11:54;2.83;;;1.90;;
8458;SDS011;4266;48.816;9.154;2023-03-31T09:14:23;6.22;;;1.92;;
8458;SDS011;4266;48.816;9.154;2023-03-31T09:16:47;2.50;;;2.12;;
8458;SDS011;4266;48.816;9.154;2023-03-31T09:19:33;4.40;;;1.98;;
8458;SDS011;4266;48.816;9.154;2023-03-31T09:22:14;4.10;;;2.03;;
8458;SDS011;4266;48.816;9.154;2023-03-31T09:24:44;2.60;;;2.08;;
8458;SDS011;4266;48.816;9.154;2023-03-31T09:27:06;2.65;;;1.92;;
8458;SDS011;4266;48.816;9.154;2023-03-31T09:29:48;2.58;;;1.77;;
8458;SDS011;4266;48.816;9.154;2023-03-31T09:32:19;4.60;;;2.10;;
8458;SDS011;4266;48.816;9.154;2023-03-31T09:34:45;2.72;;;2.08;;
8458;SDS011;4266;48.816;9.154;2023-03-31T09:37:11;4.57;;;1.90;;
8458;SDS011;4266;48.816;9.154;2023-03-31T09:39:38;3.03;;;2.10;;
8458;SDS011;4266;48.816;9.154;2023-03-31T09:42:03;3.12;;;2.30;;
8458;SDS011;4266;48.816;9.154;2023-03-31T09:44:33;5.85;;;2.28;;
8458;SDS011;4266;48.816;9.154;2023-03-31T09:46:54;3.75;;;2.40;;
8458;SDS011;4266;48.816;9.154;2023-03-31T09:49:22;5.85;;;2.97;;
8458;SDS011;4266;48.816;9.154;2023-03-31T09:51:48;5.10;;;2.72;;
8458;SDS011;4266;48.816;9.154;2023-03-31T09:54:14;4.20;;;2.45;;
8458;SDS011;4266;48.816;9.154;2023-03-31T09:56:45;4.37;;;2.87;;
8458;SDS011;4266;48.816;9.154;2023-03-31T09:59:15;4.05;;;1.90;;
8458;SDS011;4266;48.816;9.154;2023-03-31T10:01:39;6.43;;;2.47;;
8458;SDS011;4266;48.816;9.154;2023-03-31T10:04:07;5.43;;;2.42;;
8458;SDS011;4266;48.816;9.154;2023-03-31T10:06:31;3.80;;;2.12;;
8458;SDS011;4266;48.816;9.154;2023-03-31T10:08:58;4.82;;;2.70;;
8458;SDS011;4266;48.816;9.154;2023-03-31T10:11:24;3.53;;;2.35;;
8458;SDS011;4266;48.816;9.154;2023-03-31T10:13:52;6.85;;;2.65;;
8458;SDS011;4266;48.816;9.154;2023-03-31T10:16:29;4.30;;;1.87;;
8458;SDS011;4266;48.816;9.154;2023-03-31T10:19:33;4.82;;;2.35;;
8458;SDS011;4266;48.816;9.154;2023-03-31T10:21:46;5.25;;;2.42;;
8458;SDS011;4266;48.816;9.154;2023-03-31T10:24:13;4.50;;;2.50;;
8458;SDS011;4266;48.816;9.154;2023-03-31T10:26:37;4.75;;;2.78;;
8458;SDS011;4266;48.816;9.154;2023-03-31T10:29:08;3.80;;;2.65;;
8458;SDS011;4266;48.816;9.154;2023-03-31T10:31:33;4.65;;;2.22;;
8458;SDS011;4266;48.816;9.154;2023-03-31T10:33:58;5.25;;;3.03;;
8458;SDS011;4266;48.816;9.154;2023-03-31T10:36:25;7.85;;;2.50;;
8458;SDS011;4266;48.816;9.154;2023-03-31T10:38:50;5.22;;;2.85;;
8458;SDS011;4266;48.816;9.154;2023-03-31T10:41:17;5.10;;;2.80;;
8458;SDS011;4266;48.816;9.154;2023-03-31T10:43:48;5.18;;;2.30;;
8458;SDS011;4266;48.816;9.154;2023-03-31T10:46:13;5.97;;;2.28;;
8458;SDS011;4266;48.816;9.154;2023-03-31T10:48:39;6.90;;;2.60;;
8458;SDS011;4266;48.816;9.154;2023-03-31T10:51:11;2.78;;;1.85;;
8458;SDS011;4266;48.816;9.154;2023-03-31T10:53:48;4.93;;;2.47;;
8458;SDS011;4266;48.816;9.154;2023-03-31T11:01:51;4.90;;;2.30;;
8458;SDS011;4266;48.816;9.154;2023-03-31T11:07:05;4.95;;;2.42;;
8458;SDS011;4266;48.816;9.154;2023-03-31T11:10:04;4.10;;;2.28;;
8458;SDS011;4266;48.816;9.154;2023-03-31T11:12:38;7.12;;;2.58;;
8458;SDS011;4266;48.816;9.154;2023-03-31T11:15:12;6.12;;;2.75;;
8458;SDS011;4266;48.816;9.154;2023-03-31T11:17:53;5.45;;;2.58;;
8458;SDS011;4266;48.816;9.154;2023-03-31T11:22:55;4.22;;;2.40;;
8458;SDS011;4266;48.816;9.154;2023-03-31T11:25:22;9.87;;;2.10;;
8458;SDS011;4266;48.816;9.154;2023-03-31T11:27:49;3.03;;;1.70;;
8458;SDS011;4266;48.816;9.154;2023-03-31T11:30:21;2.37;;;1.40;;
8458;SDS011;4266;48.816;9.154;2023-03-31T11:32:53;1.93;;;1.83;;
8458;SDS011;4266;48.816;9.154;2023-03-31T11:35:34;1.80;;;1.70;;
8458;SDS011;4266;48.816;9.154;2023-03-31T11:38:14;1.93;;;1.83;;
8458;SDS011;4266;48.816;9.154;2023-03-31T11:40:44;2.60;;;1.60;;
8458;SDS011;4266;48.816;9.154;2023-03-31T11:43:21;1.93;;;1.73;;
8458;SDS011;4266;48.816;9.154;2023-03-31T11:46:00;1.83;;;1.73;;
8458;SDS011;4266;48.816;9.154;2023-03-31T11:48:30;1.70;;;1.50;;
8458;SDS011;4266;48.816;9.154;2023-03-31T11:50:53;3.03;;;1.80;;
8458;SDS011;4266;48.816;9.154;2023-03-31T11:53:22;2.00;;;1.90;;
8458;SDS011;4266;48.816;9.154;2023-03-31T11:55:47;2.53;;;2.03;;
8458;SDS011;4266;48.816;9.154;2023-03-31T11:58:14;2.27;;;2.10;;
8458;SDS011;4266;48.816;9.154;2023-03-31T12:00:41;3.20;;;2.40;;
8458;SDS011;4266;48.816;9.154;2023-03-31T12:03:11;2.00;;;1.90;;
8458;SDS011;4266;48.816;9.154;2023-03-31T12:05:40;2.53;;;1.70;;
8458;SDS011;4266;48.816;9.154;2023-03-31T12:08:10;2.83;;;2.27;;
8458;SDS011;4266;48.816;9.154;2023-03-31T12:10:35;2.40;;;2.20;;
8458;SDS011;4266;48.816;9.154;2023-03-31T12:15:40;2.75;;;1.87;;
8458;SDS011;4266;48.816;9.154;2023-03-31T12:18:09;1.70;;;1.60;;
8458;SDS011;4266;48.816;9.154;2023-03-31T12:20:35;1.30;;;1.20;;
8458;SDS011;4266;48.816;9.154;2023-03-31T12:23:01;1.83;;;1.50;;
8458;SDS011;4266;48.816;9.154;2023-03-31T12:25:29;5.55;;;1.85;;
8458;SDS011;4266;48.816;9.154;2023-03-31T12:27:52;1.50;;;1.40;;
8458;SDS011;4266;48.816;9.154;2023-03-31T12:30:21;2.10;;;1.70;;
8458;SDS011;4266;48.816;9.154;2023-03-31T12:33:01;3.42;;;2.08;;
8458;SDS011;4266;48.816;9.154;2023-03-31T12:35:28;1.92;;;1.83;;
8458;SDS011;4266;48.816;9.154;2023-03-31T12:41:07;2.42;;;2.28;;
8458;SDS011;4266;48.816;9.154;2023-03-31T12:44:34;1.95;;;1.42;;
8458;SDS011;4266;48.816;9.154;2023-03-31T12:49:04;1.50;;;1.40;;
8458;SDS011;4266;48.816;9.154;2023-03-31T12:51:49;1.90;;;1.80;;
8458;SDS011;4266;48.816;9.154;2023-03-31T12:59:40;1.52;;;1.40;;
8458;SDS011;4266;48.816;9.154;2023-03-31T13:04:48;7.45;;;2.10;;
8458;SDS011;4266;48.816;9.154;2023-03-31T13:07:34;2.65;;;2.03;;
8458;SDS011;4266;48.816;9.154;2023-03-31T13:12:37;3.55;;;1.75;;
8458;SDS011;4266;48.816;9.154;2023-03-31T13:15:03;3.50;;;1.98;;
8458;SDS011;4266;48.816;9.154;2023-03-31T13:17:31;5.20;;;2.22;;
8458;SDS011;4266;48.816;9.154;2023-03-31T13:19:56;5.30;;;2.15;;
8458;SDS011;4266;48.816;9.154;2023-03-31T13:22:31;3.45;;;2.20;;
8458;SDS011;4266;48.816;9.154;2023-03-31T13:27:35;2.97;;;1.90;;
8458;SDS011;4266;48.816;9.154;2023-03-31T13:30:02;9.40;;;2.27;;
8458;SDS011;4266;48.816;9.154;2023-03-31T13:32:28;2.20;;;1.90;;
8458;SDS011;4266;48.816;9.154;2023-03-31T13:34:58;2.10;;;1.70;;
8458;SDS011;4266;48.816;9.154;2023-03-31T13:37:34;2.13;;;1.90;;
8458;SDS011;4266;48.816;9.154;2023-03-31T13:40:12;3.10;;;1.70;;
8458;SDS011;4266;48.816;9.154;2023-03-31T13:42:55;2.10;;;2.00;;
8458;SDS011;4266;48.816;9.154;2023-03-31T13:46:03;2.30;;;1.40;;
8458;SDS011;4266;48.816;9.154;2023-03-31T13:48:13;1.50;;;1.40;;
8458;SDS011;4266;48.816;9.154;2023-03-31T13:50:48;1.80;;;1.50;;
8458;SDS011;4266;48.816;9.154;2023-03-31T13:53:19;2.03;;;1.87;;
8458;SDS011;4266;48.816;9.154;2023-03-31T13:56:04;1.70;;;1.60;;
8458;SDS011;4266;48.816;9.154;2023-03-31T13:58:42;2.87;;;1.80;;
8458;SDS011;4266;48.816;9.154;2023-03-31T14:01:30;1.60;;;1.47;;
8458;SDS011;4266;48.816;9.154;2023-03-31T14:06:39;1.60;;;1.53;;
8458;SDS011;4266;48.816;9.154;2023-03-31T14:09:08;2.13;;;1.97;;
8458;SDS011;4266;48.816;9.154;2023-03-31T14:11:32;2.20;;;2.00;;
8458;SDS011;4266;48.816;9.154;2023-03-31T14:14:03;3.40;;;2.27;;
8458;SDS011;4266;48.816;9.154;2023-03-31T14:16:32;2.07;;;1.97;;
8458;SDS011;4266;48.816;9.154;2023-03-31T14:19:01;1.63;;;1.53;;
8458;SDS011;4266;48.816;9.154;2023-03-31T14:21:27;1.70;;;1.60;;
8458;SDS011;4266;48.816;9.154;2023-03-31T14:23:54;1.60;;;1.50;;
8458;SDS011;4266;48.816;9.154;2023-03-31T14:29:14;2.33;;;1.80;;
8458;SDS011;4266;48.816;9.154;2023-03-31T14:34:39;1.70;;;1.60;;
8458;SDS011;4266;48.816;9.154;2023-03-31T14:37:03;1.73;;;1.63;;
8458;SDS011;4266;48.816;9.154;2023-03-31T14:39:31;1.80;;;1.70;;
8458;SDS011;4266;48.816;9.154;2023-03-31T14:41:59;1.63;;;1.53;;
8458;SDS011;4266;48.816;9.154;2023-03-31T14:44:24;1.80;;;1.70;;
8458;SDS011;4266;48.816;9.154;2023-03-31T14:46:49;1.73;;;1.63;;
8458;SDS011;4266;48.816;9.154;2023-03-31T14:49:26;2.20;;;1.77;;
8458;SDS011;4266;48.816;9.154;2023-03-31T14:51:54;1.47;;;1.37;;
8458;SDS011;4266;48.816;9.154;2023-03-31T14:54:20;1.70;;;1.70;;
8458;SDS011;4266;48.816;9.154;2023-03-31T14:56:48;2.30;;;1.20;;
8458;SDS011;4266;48.816;9.154;2023-03-31T14:59:12;1.70;;;1.60;;
8458;SDS011;4266;48.816;9.154;2023-03-31T15:01:38;1.40;;;1.30;;
8458;SDS011;4266;48.816;9.154;2023-03-31T15:04:06;2.17;;;1.80;;
8458;SDS011;4266;48.816;9.154;2023-03-31T15:06:31;1.87;;;1.63;;
8458;SDS011;4266;48.816;9.154;2023-03-31T15:08:57;1.67;;;1.57;;
8458;SDS011;4266;48.816;9.154;2023-03-31T15:11:22;2.07;;;1.70;;
8458;SDS011;4266;48.816;9.154;2023-03-31T15:13:50;2.10;;;1.90;;
8458;SDS011;4266;48.816;9.154;2023-03-31T15:16:18;2.33;;;2.00;;
8458;SDS011;4266;48.816;9.154;2023-03-31T15:18:59;2.00;;;1.80;;
8458;SDS011;4266;48.816;9.154;2023-03-31T15:21:25;2.67;;;2.03;;
8458;SDS011;4266;48.816;9.154;2023-03-31T15:23:50;2.47;;;2.10;;
8458;SDS011;4266;48.816;9.154;2023-03-31T15:26:15;2.23;;;2.00;;
8458;SDS011;4266;48.816;9.154;2023-03-31T15:28:48;4.37;;;2.13;;
8458;SDS011;4266;48.816;9.154;2023-03-31T15:31:13;3.00;;;1.93;;
8458;SDS011;4266;48.816;9.154;2023-03-31T15:33:38;2.20;;;2.03;;
8458;SDS011;4266;48.816;9.154;2023-03-31T15:36:04;4.73;;;2.20;;
8458;SDS011;4266;48.816;9.154;2023-03-31T15:38:32;2.00;;;1.90;;
8458;SDS011;4266;48.816;9.154;2023-03-31T15:40:58;3.00;;;2.00;;
8458;SDS011;4266;48.816;9.154;2023-03-31T15:43:27;4.17;;;2.37;;
8458;SDS011;4266;48.816;9.154;2023-03-31T15:45:52;3.27;;;1.80;;
8458;SDS011;4266;48.816;9.154;2023-03-31T15:48:22;2.00;;;1.87;;
8458;SDS011;4266;48.816;9.154;2023-03-31T15:50:48;3.20;;;1.70;;
8458;SDS011;4266;48.816;9.154;2023-03-31T15:53:21;2.57;;;2.07;;
8458;SDS011;4266;48.816;9.154;2023-03-31T15:55:46;2.10;;;1.90;;
8458;SDS011;4266;48.816;9.154;2023-03-31T15:58:14;3.43;;;2.27;;
8458;SDS011;4266;48.816;9.154;2023-03-31T16:00:39;2.17;;;1.97;;
8458;SDS011;4266;48.816;9.154;2023-03-31T16:03:10;3.23;;;2.30;;
8458;SDS011;4266;48.816;9.154;2023-03-31T16:05:38;1.70;;;1.60;;
8458;SDS011;4266;48.816;9.154;2023-03-31T16:08:02;4.37;;;2.10;;
8458;SDS011;4266;48.816;9.154;2023-03-31T16:10:27;3.43;;;2.77;;
8458;SDS011;4266;48.816;9.154;2023-03-31T16:12:56;2.80;;;2.60;;